createdAt,value
2023-04-18T00:00:57.582Z,1004.23
2023-04-18T00:01:57.530Z,1004.27
2023-04-18T00:02:57.595Z,1004.24
2023-04-18T00:03:57.511Z,1004.23
2023-04-18T00:04:57.529Z,1004.28
2023-04-18T00:05:58.465Z,1004.24
2023-04-18T00:06:57.523Z,1004.29
2023-04-18T00:07:57.426Z,1004.28
2023-04-18T00:08:57.369Z,1004.24
2023-04-18T00:09:57.410Z,1004.26
2023-04-18T00:10:57.363Z,1004.29
2023-04-18T00:11:57.320Z,1004.28
2023-04-18T00:12:57.349Z,1004.25
2023-04-18T00:13:57.265Z,1004.24
2023-04-18T00:14:57.410Z,1004.25
2023-04-18T00:15:57.339Z,1004.30
2023-04-18T00:16:57.523Z,1004.26
2023-04-18T00:17:57.469Z,1004.27
2023-04-18T00:18:57.431Z,1004.26
2023-04-18T00:19:58.304Z,1004.33
2023-04-18T00:20:57.294Z,1004.28
2023-04-18T00:21:57.341Z,1004.22
2023-04-18T00:22:57.550Z,1004.20
2023-04-18T00:23:57.397Z,1004.24
2023-04-18T00:24:57.424Z,1004.16
2023-04-18T00:25:57.374Z,1004.19
2023-04-18T00:28:55.917Z,1004.17
2023-04-18T00:29:57.086Z,1004.27
2023-04-18T00:30:57.222Z,1004.13
2023-04-18T00:31:57.214Z,1004.25
2023-04-18T00:32:57.061Z,1004.22
2023-04-18T00:33:57.085Z,1004.25
2023-04-18T00:34:57.077Z,1004.22
2023-04-18T00:35:57.080Z,1004.10
2023-04-18T00:36:57.266Z,1004.15
2023-04-18T00:37:57.154Z,1004.20
2023-04-18T00:38:57.211Z,1004.12
2023-04-18T00:39:57.082Z,1004.10
2023-04-18T00:40:57.331Z,1004.16
2023-04-18T00:41:57.069Z,1004.13
2023-04-18T00:42:57.078Z,1004.13
2023-04-18T00:43:57.034Z,1004.12
2023-04-18T00:44:57.128Z,1004.17
2023-04-18T00:45:57.205Z,1004.06
2023-04-18T00:46:57.016Z,1004.14
2023-04-18T00:49:02.375Z,1004.15
2023-04-18T00:49:04.167Z,1004.11
2023-04-18T00:50:05.284Z,1004.10
2023-04-18T00:51:04.247Z,1004.17
2023-04-18T00:52:04.165Z,1004.12
2023-04-18T00:53:04.105Z,1004.08
2023-04-18T00:54:04.278Z,1004.15
2023-04-18T00:55:04.278Z,1004.04
2023-04-18T00:56:04.203Z,1004.08
2023-04-18T00:57:04.203Z,1004.09
2023-04-18T00:58:48.335Z,1004.09
2023-04-18T00:59:04.064Z,1004.12
2023-04-18T01:00:04.168Z,1004.06
2023-04-18T01:01:04.277Z,1004.11
2023-04-18T01:02:04.263Z,1004.14
2023-04-18T01:03:04.378Z,1004.08
2023-04-18T01:04:04.218Z,1004.10
2023-04-18T01:05:04.139Z,1004.04
2023-04-18T01:06:04.114Z,1004.07
2023-04-18T01:07:04.009Z,1004.11
2023-04-18T01:08:04.011Z,1004.10
2023-04-18T01:09:03.987Z,1004.07
2023-04-18T01:10:04.090Z,1004.12
2023-04-18T01:11:03.993Z,1004.12
2023-04-18T01:12:04.001Z,1004.18
2023-04-18T01:13:03.973Z,1004.07
2023-04-18T01:14:03.969Z,1004.09
2023-04-18T01:15:04.000Z,1004.07
2023-04-18T01:16:04.074Z,1004.06
2023-04-18T01:17:04.214Z,1004.13
2023-04-18T01:18:04.164Z,1004.10
2023-04-18T01:19:04.014Z,1004.05
2023-04-18T01:20:04.116Z,1004.07
2023-04-18T01:21:04.028Z,1004.14
2023-04-18T01:22:04.091Z,1004.13
2023-04-18T01:23:04.345Z,1004.06
2023-04-18T01:24:04.174Z,1004.11
2023-04-18T01:25:03.953Z,1003.99
2023-04-18T01:26:03.948Z,1004.02
2023-04-18T01:27:03.891Z,1004.09
2023-04-18T01:28:03.954Z,1004.01
2023-04-18T01:29:03.956Z,1004.00
2023-04-18T01:30:03.861Z,1003.93
2023-04-18T01:31:03.871Z,1004.01
2023-04-18T01:32:04.035Z,1003.95
2023-04-18T01:33:04.017Z,1004.04
2023-04-18T01:34:03.874Z,1004.00
2023-04-18T01:35:03.891Z,1004.00
2023-04-18T01:36:03.938Z,1004.05
2023-04-18T01:37:03.972Z,1004.07
2023-04-18T01:38:03.917Z,1004.04
2023-04-18T01:39:03.950Z,1004.02
2023-04-18T01:40:03.927Z,1004.01
2023-04-18T01:41:03.984Z,1004.04
2023-04-18T01:42:03.896Z,1004.03
2023-04-18T01:43:03.881Z,1003.99
2023-04-18T01:44:03.822Z,1004.02
2023-04-18T01:45:03.788Z,1004.01
2023-04-18T01:46:03.818Z,1003.99
2023-04-18T01:47:03.821Z,1004.05
2023-04-18T01:48:03.834Z,1004.00
2023-04-18T01:49:03.722Z,1004.03
2023-04-18T01:50:03.793Z,1004.02
2023-04-18T01:51:03.763Z,1004.06
2023-04-18T01:52:03.807Z,1004.05
2023-04-18T01:53:03.765Z,1004.02
2023-04-18T01:54:03.755Z,1004.00
2023-04-18T01:55:03.832Z,1003.99
2023-04-18T01:56:03.743Z,1004.03
2023-04-18T01:57:03.759Z,1003.96
2023-04-18T01:58:03.723Z,1004.08
2023-04-18T01:59:03.783Z,1003.99
2023-04-18T02:00:03.787Z,1004.00
2023-04-18T02:01:04.919Z,1004.01
2023-04-18T02:02:03.975Z,1003.96
2023-04-18T02:03:03.842Z,1004.02
2023-04-18T02:04:03.829Z,1003.95
2023-04-18T02:05:03.685Z,1003.95
2023-04-18T02:06:03.779Z,1003.94
2023-04-18T02:07:03.578Z,1003.91
2023-04-18T02:08:03.638Z,1004.02
2023-04-18T02:09:03.673Z,1004.00
2023-04-18T02:10:03.589Z,1003.99
2023-04-18T02:11:03.653Z,1003.92
2023-04-18T02:12:04.824Z,1003.89
2023-04-18T02:13:03.674Z,1004.01
2023-04-18T02:14:03.683Z,1003.99
2023-04-18T02:15:03.659Z,1004.01
2023-04-18T02:18:15.832Z,1003.99
2023-04-18T02:19:17.086Z,1004.04
2023-04-18T02:20:17.106Z,1004.05
2023-04-18T02:21:17.057Z,1004.05
2023-04-18T02:22:18.169Z,1004.04
2023-04-18T02:23:17.513Z,1003.97
2023-04-18T02:24:17.123Z,1004.05
2023-04-18T02:25:17.072Z,1004.06
2023-04-18T02:26:17.038Z,1004.05
2023-04-18T02:27:17.059Z,1004.15
2023-04-18T02:28:17.061Z,1004.08
2023-04-18T02:29:17.052Z,1004.02
2023-04-18T02:30:16.929Z,1004.06
2023-04-18T02:31:16.937Z,1004.06
2023-04-18T02:32:16.945Z,1004.11
2023-04-18T02:33:16.936Z,1004.06
2023-04-18T02:34:16.982Z,1004.13
2023-04-18T02:35:16.940Z,1004.13
2023-04-18T02:36:16.932Z,1004.11
2023-04-18T02:37:16.865Z,1004.11
2023-04-18T02:38:16.895Z,1004.07
2023-04-18T02:39:17.039Z,1004.14
2023-04-18T02:40:16.975Z,1004.08
2023-04-18T02:41:17.057Z,1004.10
2023-04-18T02:42:16.989Z,1004.01
2023-04-18T02:43:16.927Z,1004.05
2023-04-18T02:46:15.229Z,1004.11
2023-04-18T02:47:16.469Z,1004.09
2023-04-18T02:48:16.452Z,1004.05
2023-04-18T02:49:16.359Z,1004.04
2023-04-18T02:50:16.417Z,1004.07
2023-04-18T02:51:16.356Z,1004.02
2023-04-18T02:52:16.342Z,1004.03
2023-04-18T02:53:16.326Z,1004.00
2023-04-18T02:54:16.521Z,1004.04
2023-04-18T02:55:16.358Z,1004.07
2023-04-18T02:56:16.462Z,1004.02
2023-04-18T02:57:16.459Z,1004.06
2023-04-18T02:58:16.361Z,1004.07
2023-04-18T02:59:16.315Z,1004.03
2023-04-18T03:00:49.641Z,1004.07
2023-04-18T03:01:16.310Z,1004.09
2023-04-18T03:02:16.407Z,1004.01
2023-04-18T03:03:16.382Z,1004.02
2023-04-18T03:04:16.507Z,1004.05
2023-04-18T03:05:16.365Z,1004.04
2023-04-18T03:06:16.318Z,1004.00
2023-04-18T03:07:16.409Z,1004.03
2023-04-18T03:08:16.286Z,1004.07
2023-04-18T03:09:16.254Z,1004.07
2023-04-18T03:10:16.201Z,1004.04
2023-04-18T03:11:16.191Z,1004.07
2023-04-18T03:12:16.277Z,1004.09
2023-04-18T03:13:16.288Z,1004.07
2023-04-18T03:14:16.267Z,1004.09
2023-04-18T03:15:16.313Z,1004.16
2023-04-18T03:16:16.341Z,1004.10
2023-04-18T03:17:16.283Z,1004.08
2023-04-18T03:18:16.305Z,1004.06
2023-04-18T03:19:16.235Z,1004.06
2023-04-18T03:20:16.221Z,1004.09
2023-04-18T03:22:23.968Z,1004.09
2023-04-18T03:23:25.413Z,1004.05
2023-04-18T03:24:25.361Z,1004.06
2023-04-18T03:25:25.362Z,1004.03
2023-04-18T03:26:25.228Z,1004.08
2023-04-18T03:27:25.222Z,1004.04
2023-04-18T03:28:25.267Z,1004.07
2023-04-18T03:29:25.212Z,1004.14
2023-04-18T03:30:25.148Z,1004.10
2023-04-18T03:31:58.447Z,1004.13
2023-04-18T03:32:25.385Z,1004.09
2023-04-18T03:33:25.203Z,1004.10
2023-04-18T03:34:26.276Z,1004.14
2023-04-18T03:35:25.129Z,1004.17
2023-04-18T03:36:25.229Z,1004.12
2023-04-18T03:37:25.144Z,1004.16
2023-04-18T03:38:25.175Z,1004.20
2023-04-18T03:39:25.176Z,1004.13
2023-04-18T03:40:25.274Z,1003.96
2023-04-18T03:41:25.232Z,1004.14
2023-04-18T03:42:25.307Z,1004.09
2023-04-18T03:43:25.167Z,1004.09
2023-04-18T03:44:25.277Z,1004.13
2023-04-18T03:45:25.200Z,1004.12
2023-04-18T03:46:25.096Z,1004.13
2023-04-18T03:47:25.220Z,1004.14
2023-04-18T03:48:25.198Z,1004.18
2023-04-18T03:49:26.160Z,1004.17
2023-04-18T03:50:25.709Z,1004.16
2023-04-18T03:51:24.986Z,1004.13
2023-04-18T03:52:24.987Z,1004.18
2023-04-18T03:53:25.028Z,1004.16
2023-04-18T03:54:24.973Z,1004.13
2023-04-18T03:55:25.251Z,1004.09
2023-04-18T03:56:24.946Z,1004.24
2023-04-18T03:57:25.032Z,1004.24
2023-04-18T03:58:24.985Z,1004.23
2023-04-18T03:59:25.041Z,1004.20
2023-04-18T04:00:25.048Z,1004.21
2023-04-18T04:01:25.080Z,1004.22
2023-04-18T04:02:25.170Z,1004.30
2023-04-18T04:03:25.270Z,1004.17
2023-04-18T04:04:25.059Z,1004.19
2023-04-18T04:05:25.022Z,1004.28
2023-04-18T04:06:26.079Z,1004.24
2023-04-18T04:07:25.159Z,1004.19
2023-04-18T04:08:27.019Z,1004.17
2023-04-18T04:09:24.916Z,1004.22
2023-04-18T04:10:24.967Z,1004.19
2023-04-18T04:11:24.979Z,1004.19
2023-04-18T04:12:24.903Z,1004.21
2023-04-18T04:13:24.881Z,1004.26
2023-04-18T04:14:24.802Z,1004.26
2023-04-18T04:15:24.865Z,1004.18
2023-04-18T04:16:24.889Z,1004.18
2023-04-18T04:17:24.944Z,1004.24
2023-04-18T04:18:24.779Z,1004.24
2023-04-18T04:19:24.889Z,1004.26
2023-04-18T04:22:44.936Z,1004.26
2023-04-18T04:23:46.338Z,1004.21
2023-04-18T04:24:46.378Z,1004.22
2023-04-18T04:25:46.182Z,1004.24
2023-04-18T04:26:46.330Z,1004.28
2023-04-18T04:27:46.780Z,1004.27
2023-04-18T04:28:46.181Z,1004.28
2023-04-18T04:29:46.254Z,1004.34
2023-04-18T04:30:46.164Z,1004.30
2023-04-18T04:31:46.231Z,1004.30
2023-04-18T04:32:46.249Z,1004.33
2023-04-18T04:33:46.190Z,1004.18
2023-04-18T04:34:46.066Z,1004.33
2023-04-18T04:35:46.073Z,1004.32
2023-04-18T04:36:46.024Z,1004.31
2023-04-18T04:37:46.083Z,1004.30
2023-04-18T04:38:46.129Z,1004.34
2023-04-18T04:39:46.281Z,1004.31
2023-04-18T04:40:46.118Z,1004.36
2023-04-18T04:41:46.241Z,1004.34
2023-04-18T04:42:46.123Z,1004.42
2023-04-18T04:43:46.264Z,1004.38
2023-04-18T04:44:46.201Z,1004.40
2023-04-18T04:45:46.252Z,1004.42
2023-04-18T04:46:46.160Z,1004.42
2023-04-18T04:48:09.397Z,1004.41
2023-04-18T04:49:10.244Z,1004.50
2023-04-18T04:49:46.951Z,1004.53
2023-04-18T04:50:45.970Z,1004.44
2023-04-18T04:51:45.957Z,1004.49
2023-04-18T04:52:46.032Z,1004.45
2023-04-18T04:53:46.036Z,1004.45
2023-04-18T04:54:46.004Z,1004.48
2023-04-18T04:55:45.954Z,1004.43
2023-04-18T04:56:45.918Z,1004.43
2023-04-18T04:57:45.952Z,1004.48
2023-04-18T04:58:45.922Z,1004.49
2023-04-18T05:00:18.965Z,1004.49
2023-04-18T05:00:45.956Z,1004.52
2023-04-18T05:01:45.991Z,1004.50
2023-04-18T05:02:46.076Z,1004.49
2023-04-18T05:03:46.435Z,1004.53
2023-04-18T05:04:45.825Z,1004.48
2023-04-18T05:05:45.973Z,1004.45
2023-04-18T05:06:45.878Z,1004.52
2023-04-18T05:07:45.830Z,1004.43
2023-04-18T05:08:45.866Z,1004.53
2023-04-18T05:10:20.319Z,1004.52
2023-04-18T05:10:45.933Z,1004.52
2023-04-18T05:11:45.843Z,1004.56
2023-04-18T05:12:45.810Z,1004.55
2023-04-18T05:13:45.841Z,1004.63
2023-04-18T05:14:45.831Z,1004.61
2023-04-18T05:15:45.858Z,1004.61
2023-04-18T05:16:45.873Z,1004.60
2023-04-18T05:17:45.829Z,1004.58
2023-04-18T05:18:45.774Z,1004.63
2023-04-18T05:19:45.792Z,1004.63
2023-04-18T05:20:45.768Z,1004.61
2023-04-18T05:21:45.886Z,1004.61
2023-04-18T05:22:45.710Z,1004.59
2023-04-18T05:23:45.797Z,1004.56
2023-04-18T05:24:45.720Z,1004.55
2023-04-18T05:25:45.738Z,1004.56
2023-04-18T05:26:45.756Z,1004.55
2023-04-18T05:28:19.038Z,1004.62
2023-04-18T05:29:18.726Z,1004.56
2023-04-18T05:30:19.834Z,1004.60
2023-04-18T05:30:45.746Z,1004.61
2023-04-18T05:32:24.745Z,1004.62
2023-04-18T05:32:45.839Z,1004.62
2023-04-18T05:34:18.795Z,1004.62
2023-04-18T05:35:18.965Z,1004.52
2023-04-18T05:36:18.818Z,1004.64
2023-04-18T05:36:45.630Z,1004.64
2023-04-18T05:39:55.352Z,1004.66
2023-04-18T05:40:56.702Z,1004.67
2023-04-18T05:41:56.626Z,1004.72
2023-04-18T05:42:56.631Z,1004.68
2023-04-18T05:44:04.929Z,1004.73
2023-04-18T05:44:59.712Z,1004.67
2023-04-18T05:45:57.859Z,1004.73
2023-04-18T05:46:57.568Z,1004.67
2023-04-18T05:47:56.648Z,1004.71
2023-04-18T05:48:56.639Z,1004.75
2023-04-18T05:49:56.646Z,1004.69
2023-04-18T05:50:56.657Z,1004.74
2023-04-18T05:51:56.544Z,1004.78
2023-04-18T05:52:56.443Z,1004.82
2023-04-18T05:53:56.480Z,1004.81
2023-04-18T05:54:56.441Z,1004.83
2023-04-18T05:55:56.528Z,1004.83
2023-04-18T05:56:56.751Z,1004.87
2023-04-18T05:57:56.564Z,1004.78
2023-04-18T05:58:56.603Z,1004.90
2023-04-18T05:59:56.517Z,1004.77
2023-04-18T06:00:56.676Z,1004.83
2023-04-18T06:01:56.546Z,1004.85
2023-04-18T06:02:56.640Z,1004.82
2023-04-18T06:03:56.718Z,1004.91
2023-04-18T06:04:56.792Z,1004.93
2023-04-18T06:05:56.523Z,1005.01
2023-04-18T06:06:56.516Z,1004.99
2023-04-18T06:07:56.449Z,1004.98
2023-04-18T06:08:56.371Z,1005.01
2023-04-18T06:09:56.434Z,1005.00
2023-04-18T06:10:56.466Z,1005.03
2023-04-18T06:16:03.461Z,1005.03
2023-04-18T06:17:04.683Z,1005.06
2023-04-18T06:18:04.826Z,1005.02
2023-04-18T06:19:04.692Z,1005.11
2023-04-18T06:20:04.789Z,1005.06
2023-04-18T06:21:04.760Z,1005.08
2023-04-18T06:22:04.678Z,1004.99
2023-04-18T06:23:04.657Z,1005.01
2023-04-18T06:24:04.660Z,1005.10
2023-04-18T06:25:04.639Z,1005.09
2023-04-18T06:26:04.570Z,1005.12
2023-04-18T06:27:04.706Z,1005.12
2023-04-18T06:31:15.647Z,1005.09
2023-04-18T06:31:17.428Z,1005.20
2023-04-18T06:32:18.007Z,1005.14
2023-04-18T06:33:17.480Z,1005.18
2023-04-18T06:34:17.596Z,1005.13
2023-04-18T06:35:17.557Z,1005.13
2023-04-18T06:36:17.527Z,1005.23
2023-04-18T06:37:17.580Z,1005.19
2023-04-18T06:38:17.414Z,1005.25
2023-04-18T06:39:17.472Z,1005.19
2023-04-18T06:40:17.435Z,1005.20
2023-04-18T06:41:17.571Z,1005.18
2023-04-18T06:42:17.427Z,1005.20
2023-04-18T06:43:17.438Z,1005.20
2023-04-18T06:44:17.411Z,1005.25
2023-04-18T06:45:17.421Z,1005.24
2023-04-18T06:46:17.395Z,1005.26
2023-04-18T06:47:17.374Z,1005.18
2023-04-18T06:48:17.535Z,1005.19
2023-04-18T06:49:17.392Z,1005.21
2023-04-18T06:50:17.370Z,1005.24
2023-04-18T06:52:50.048Z,1005.26
2023-04-18T06:53:51.475Z,1005.34
2023-04-18T06:54:51.382Z,1005.15
2023-04-18T06:55:51.419Z,1005.22
2023-04-18T06:56:51.297Z,1005.25
2023-04-18T06:57:51.266Z,1005.26
2023-04-18T06:58:51.245Z,1005.26
2023-04-18T06:59:51.184Z,1005.30
2023-04-18T07:00:51.307Z,1005.28
2023-04-18T07:01:51.304Z,1005.35
2023-04-18T07:02:51.459Z,1005.40
2023-04-18T07:03:51.451Z,1005.37
2023-04-18T07:04:51.268Z,1005.37
2023-04-18T07:05:52.263Z,1005.33
2023-04-18T07:06:51.308Z,1005.41
2023-04-18T07:07:51.330Z,1005.32
2023-04-18T07:08:52.247Z,1005.33
2023-04-18T07:09:52.025Z,1005.36
2023-04-18T07:10:51.290Z,1005.42
2023-04-18T07:11:51.326Z,1005.37
2023-04-18T07:12:51.210Z,1005.42
2023-04-18T07:13:51.324Z,1005.39
2023-04-18T07:15:25.732Z,1005.38
2023-04-18T07:15:51.141Z,1005.40
2023-04-18T07:16:51.251Z,1005.40
2023-04-18T07:17:51.133Z,1005.38
2023-04-18T07:18:51.181Z,1005.33
2023-04-18T07:19:51.094Z,1005.38
2023-04-18T07:20:51.077Z,1005.38
2023-04-18T07:21:51.121Z,1005.35
2023-04-18T07:22:51.057Z,1005.40
2023-04-18T07:23:51.048Z,1005.36
2023-04-18T07:26:22.470Z,1005.41
2023-04-18T07:26:24.205Z,1005.38
2023-04-18T07:29:37.277Z,1005.47
2023-04-18T07:30:38.572Z,1005.43
2023-04-18T07:31:38.624Z,1005.36
2023-04-18T07:32:38.543Z,1005.41
2023-04-18T07:33:38.377Z,1005.42
2023-04-18T07:34:38.353Z,1005.38
2023-04-18T07:35:38.562Z,1005.40
2023-04-18T07:36:38.735Z,1005.39
2023-04-18T07:37:38.341Z,1005.38
2023-04-18T07:38:38.378Z,1005.47
2023-04-18T07:39:38.564Z,1005.48
2023-04-18T07:40:38.359Z,1005.49
2023-04-18T07:41:38.418Z,1005.41
2023-04-18T07:42:40.428Z,1005.45
2023-04-18T07:43:38.379Z,1005.46
2023-04-18T07:44:38.418Z,1005.51
2023-04-18T07:45:38.329Z,1005.48
2023-04-18T07:46:38.448Z,1005.46
2023-04-18T07:47:38.425Z,1005.52
2023-04-18T07:48:38.356Z,1005.54
2023-04-18T07:49:38.346Z,1005.53
2023-04-18T07:50:38.613Z,1005.53
2023-04-18T07:51:38.373Z,1005.51
2023-04-18T07:52:39.380Z,1005.49
2023-04-18T07:53:39.501Z,1005.50
2023-04-18T07:54:38.357Z,1005.49
2023-04-18T07:55:38.311Z,1005.47
2023-04-18T07:56:38.332Z,1005.46
2023-04-18T07:57:38.346Z,1005.50
2023-04-18T07:58:38.408Z,1005.45
2023-04-18T07:59:38.274Z,1005.42
2023-04-18T08:00:38.443Z,1005.44
2023-04-18T08:01:38.471Z,1005.43
2023-04-18T08:02:38.427Z,1005.52
2023-04-18T08:03:38.362Z,1005.48
2023-04-18T08:04:39.458Z,1005.51
2023-04-18T08:05:38.275Z,1005.57
2023-04-18T08:07:12.243Z,1005.51
2023-04-18T08:07:38.105Z,1005.52
2023-04-18T08:08:38.123Z,1005.50
2023-04-18T08:09:38.266Z,1005.60
2023-04-18T08:10:38.124Z,1005.57
2023-04-18T08:11:38.098Z,1005.52
2023-04-18T08:12:38.073Z,1005.56
2023-04-18T08:13:38.046Z,1005.66
2023-04-18T08:14:38.045Z,1005.66
2023-04-18T08:15:38.115Z,1005.63
2023-04-18T08:16:38.384Z,1005.66
2023-04-18T08:17:38.136Z,1005.68
2023-04-18T08:18:38.071Z,1005.61
2023-04-18T08:19:38.067Z,1005.65
2023-04-18T08:20:38.125Z,1005.62
2023-04-18T08:21:38.173Z,1005.57
2023-04-18T08:22:46.958Z,1005.67
2023-04-18T08:23:39.948Z,1005.66
2023-04-18T08:24:38.135Z,1005.65
2023-04-18T08:25:38.215Z,1005.60
2023-04-18T08:26:38.093Z,1005.62
2023-04-18T08:27:38.048Z,1005.61
2023-04-18T08:29:12.466Z,1005.61
2023-04-18T08:29:38.026Z,1005.53
2023-04-18T08:32:36.533Z,1005.69
2023-04-18T08:33:37.932Z,1005.64
2023-04-18T08:34:37.764Z,1005.69
2023-04-18T08:35:37.696Z,1005.65
2023-04-18T08:36:37.822Z,1005.69
2023-04-18T08:37:38.090Z,1005.67
2023-04-18T08:38:37.871Z,1005.60
2023-04-18T08:39:37.888Z,1005.62
2023-04-18T08:40:37.792Z,1005.71
2023-04-18T08:41:37.919Z,1005.65
2023-04-18T08:42:37.761Z,1005.66
2023-04-18T08:43:37.772Z,1005.67
2023-04-18T08:44:37.630Z,1005.75
2023-04-18T08:45:37.762Z,1005.74
2023-04-18T08:46:37.732Z,1005.72
2023-04-18T08:47:37.732Z,1005.76
2023-04-18T08:48:37.827Z,1005.77
2023-04-18T08:49:37.720Z,1005.76
2023-04-18T08:50:37.708Z,1005.78
2023-04-18T08:51:37.722Z,1005.72
2023-04-18T08:52:37.702Z,1005.76
2023-04-18T08:58:05.432Z,1005.72
2023-04-18T08:59:08.104Z,1005.62
2023-04-18T09:00:06.922Z,1005.71
2023-04-18T09:01:07.226Z,1005.71
2023-04-18T09:02:57.942Z,1005.75
2023-04-18T09:03:06.678Z,1005.70
2023-04-18T09:06:50.677Z,1005.77
2023-04-18T09:07:52.383Z,1005.78
2023-04-18T09:08:53.056Z,1005.73
2023-04-18T09:09:52.462Z,1005.70
2023-04-18T09:10:52.894Z,1005.76
2023-04-18T09:19:56.838Z,1005.82
2023-04-18T09:27:33.822Z,1005.81
2023-04-18T09:28:34.908Z,1005.80
2023-04-18T09:29:35.107Z,1005.70
2023-04-18T09:30:34.958Z,1005.82
2023-04-18T09:31:34.989Z,1005.76
2023-04-18T09:32:34.962Z,1005.67
2023-04-18T09:33:34.933Z,1005.71
2023-04-18T09:35:07.953Z,1005.71
2023-04-18T09:35:34.809Z,1005.73
2023-04-18T09:36:35.887Z,1005.74
2023-04-18T09:37:34.872Z,1005.76
2023-04-18T09:38:35.155Z,1005.81
2023-04-18T09:39:34.839Z,1005.72
2023-04-18T09:40:34.862Z,1005.73
2023-04-18T09:41:34.834Z,1005.69
2023-04-18T09:42:34.770Z,1005.72
2023-04-18T09:43:34.852Z,1005.80
2023-04-18T09:44:34.836Z,1005.69
2023-04-18T09:46:08.834Z,1005.67
2023-04-18T09:46:34.856Z,1005.69
2023-04-18T09:47:34.647Z,1005.62
2023-04-18T09:48:34.649Z,1005.68
2023-04-18T09:49:34.669Z,1005.61
2023-04-18T09:50:34.760Z,1005.56
2023-04-18T09:51:34.668Z,1005.62
2023-04-18T09:52:34.642Z,1005.56
2023-04-18T09:53:34.655Z,1005.61
2023-04-18T09:54:34.679Z,1005.62
2023-04-18T09:55:34.658Z,1005.54
2023-04-18T09:56:34.689Z,1005.63
2023-04-18T09:57:34.622Z,1005.56
2023-04-18T09:58:34.670Z,1005.53
2023-04-18T09:59:34.637Z,1005.52
2023-04-18T10:00:34.695Z,1005.45
2023-04-18T10:01:34.786Z,1005.48
2023-04-18T10:02:34.659Z,1005.52
2023-04-18T10:05:43.903Z,1005.48
2023-04-18T10:06:45.071Z,1005.57
2023-04-18T10:07:44.963Z,1005.48
2023-04-18T10:08:44.871Z,1005.46
2023-04-18T10:09:44.977Z,1005.44
2023-04-18T10:10:45.049Z,1005.45
2023-04-18T10:11:44.937Z,1005.43
2023-04-18T10:12:44.859Z,1005.45
2023-04-18T10:13:44.941Z,1005.45
2023-04-18T10:14:44.930Z,1005.35
2023-04-18T10:15:45.401Z,1005.45
2023-04-18T10:16:48.515Z,1005.43
2023-04-18T10:17:56.137Z,1005.50
2023-04-18T10:41:20.935Z,1005.30
2023-04-18T10:42:21.397Z,1005.25
2023-04-18T11:29:33.821Z,1005.02
2023-04-18T11:30:34.961Z,1004.93
2023-04-18T11:31:34.738Z,1004.87
2023-04-18T11:32:34.764Z,1004.97
2023-04-18T11:33:34.874Z,1004.98
2023-04-18T11:41:08.680Z,1004.94
2023-04-18T11:42:09.658Z,1004.92
2023-04-18T11:43:11.330Z,1004.80
2023-04-18T11:44:09.564Z,1004.85
2023-04-18T11:45:10.780Z,1004.85
2023-04-18T11:46:09.944Z,1004.92
2023-04-18T11:47:09.562Z,1004.88
2023-04-18T11:48:09.590Z,1004.82
2023-04-18T11:49:09.610Z,1004.86
2023-04-18T11:50:09.540Z,1004.84
2023-04-18T11:51:09.475Z,1004.85
2023-04-18T11:52:10.490Z,1004.90
2023-04-18T11:53:09.445Z,1004.90
2023-04-18T11:54:09.447Z,1004.87
2023-04-18T11:55:09.460Z,1004.92
2023-04-18T11:56:09.417Z,1004.92
2023-04-18T11:57:09.540Z,1004.90
2023-04-18T11:58:09.454Z,1004.95
2023-04-18T11:59:09.503Z,1004.87
2023-04-18T12:00:09.679Z,1004.85
2023-04-18T12:01:09.508Z,1004.86
2023-04-18T12:02:16.151Z,1004.86
2023-04-18T12:03:13.927Z,1004.91
2023-04-18T12:04:10.494Z,1004.95
2023-04-18T12:05:09.712Z,1004.94
2023-04-18T12:06:09.500Z,1004.91
2023-04-18T12:07:09.372Z,1004.92
2023-04-18T12:08:14.487Z,1004.86
2023-04-18T12:09:09.284Z,1004.91
2023-04-18T12:10:09.609Z,1004.87
2023-04-18T12:11:09.377Z,1004.90
2023-04-18T12:12:09.488Z,1004.86
2023-04-18T12:13:09.434Z,1004.93
2023-04-18T12:14:11.756Z,1004.90
2023-04-18T12:15:09.398Z,1004.92
2023-04-18T12:16:09.389Z,1004.91
2023-04-18T12:17:09.739Z,1004.93
2023-04-18T12:18:09.412Z,1004.89
2023-04-18T12:19:09.392Z,1004.88
2023-04-18T12:20:09.397Z,1004.86
2023-04-18T12:21:09.378Z,1004.87
2023-04-18T12:22:09.381Z,1004.90
2023-04-18T12:23:09.378Z,1004.94
2023-04-18T12:24:09.367Z,1004.94
2023-04-18T12:25:09.261Z,1004.89
2023-04-18T12:26:09.439Z,1004.92
2023-04-18T12:27:09.449Z,1004.88
2023-04-18T12:28:09.313Z,1004.93
2023-04-18T12:29:09.112Z,1004.93
2023-04-18T12:30:09.196Z,1004.91
2023-04-18T12:31:09.551Z,1004.93
2023-04-18T12:32:09.155Z,1004.96
2023-04-18T12:33:09.472Z,1004.95
2023-04-18T12:34:09.239Z,1004.89
2023-04-18T12:35:09.253Z,1004.99
2023-04-18T12:36:09.321Z,1005.00
2023-04-18T12:37:09.201Z,1005.05
2023-04-18T12:38:09.484Z,1004.95
2023-04-18T12:39:09.412Z,1004.94
2023-04-18T12:40:09.369Z,1004.91
2023-04-18T12:41:09.225Z,1004.91
2023-04-18T12:42:09.288Z,1004.90
2023-04-18T12:43:09.535Z,1004.96
2023-04-18T12:44:09.462Z,1004.92
2023-04-18T12:45:42.131Z,1004.94
2023-04-18T12:46:09.533Z,1005.00
2023-04-18T12:47:10.078Z,1005.00
2023-04-18T12:48:09.698Z,1004.94
2023-04-18T12:49:09.513Z,1004.94
2023-04-18T12:50:11.221Z,1004.92
2023-04-18T12:51:09.402Z,1004.89
2023-04-18T12:52:09.395Z,1004.94
2023-04-18T12:53:09.512Z,1004.90
2023-04-18T12:54:09.326Z,1004.88
2023-04-18T12:55:42.432Z,1004.92
2023-04-18T12:56:09.425Z,1004.98
2023-04-18T12:57:09.598Z,1004.99
2023-04-18T12:58:09.561Z,1004.98
2023-04-18T12:59:09.007Z,1004.93
2023-04-18T13:00:09.633Z,1004.89
2023-04-18T13:01:10.091Z,1004.91
2023-04-18T13:02:09.549Z,1004.93
2023-04-18T13:03:11.600Z,1004.97
2023-04-18T13:04:12.926Z,1004.93
2023-04-18T13:05:10.276Z,1004.93
2023-04-18T13:06:09.048Z,1004.85
2023-04-18T13:07:09.612Z,1004.96
2023-04-18T13:08:16.791Z,1004.90
2023-04-18T13:09:11.732Z,1004.92
2023-04-18T13:10:09.526Z,1004.88
2023-04-18T13:11:09.178Z,1004.89
2023-04-18T13:12:09.142Z,1004.98
2023-04-18T13:13:09.053Z,1004.98
2023-04-18T13:14:08.950Z,1004.92
2023-04-18T13:15:09.117Z,1005.01
2023-04-18T13:16:09.413Z,1005.00
2023-04-18T13:17:08.868Z,1004.99
2023-04-18T13:18:09.082Z,1005.02
2023-04-18T13:19:08.958Z,1004.94
2023-04-18T13:20:09.213Z,1004.97
2023-04-18T13:21:40.948Z,1004.93
2023-04-18T13:22:09.109Z,1004.98
2023-04-18T13:23:09.456Z,1004.99
2023-04-18T13:24:09.162Z,1004.99
2023-04-18T13:25:09.245Z,1004.93
2023-04-18T13:26:09.097Z,1004.91
2023-04-18T13:27:09.178Z,1004.90
2023-04-18T13:28:08.911Z,1004.97
2023-04-18T13:29:09.040Z,1004.93
2023-04-18T13:30:09.094Z,1004.94
2023-04-18T13:31:08.858Z,1004.97
2023-04-18T13:32:09.203Z,1004.89
2023-04-18T13:33:08.783Z,1004.96
2023-04-18T13:34:42.400Z,1004.84
2023-04-18T13:35:08.712Z,1004.93
2023-04-18T13:36:09.377Z,1004.90
2023-04-18T13:37:08.797Z,1004.93
2023-04-18T13:38:08.679Z,1004.93
2023-04-18T13:39:08.934Z,1004.87
2023-04-18T13:40:08.766Z,1004.92
2023-04-18T13:41:12.612Z,1004.91
2023-04-18T13:42:09.792Z,1005.00
2023-04-18T13:43:08.668Z,1004.94
2023-04-18T13:44:08.783Z,1004.96
2023-04-18T13:45:09.883Z,1004.96
2023-04-18T13:46:09.077Z,1004.90
2023-04-18T13:47:08.643Z,1004.87
2023-04-18T13:48:08.742Z,1004.92
2023-04-18T13:49:08.830Z,1004.94
2023-04-18T13:50:08.823Z,1004.95
2023-04-18T13:51:08.759Z,1004.93
2023-04-18T13:52:08.711Z,1004.96
2023-04-18T13:53:09.259Z,1004.97
2023-04-18T13:54:08.637Z,1004.90
2023-04-18T13:55:08.590Z,1004.98
2023-04-18T13:56:08.721Z,1004.90
2023-04-18T13:57:08.627Z,1004.96
2023-04-18T13:58:09.822Z,1004.85
2023-04-18T13:59:09.780Z,1004.87
2023-04-18T14:02:06.995Z,1004.95
2023-04-18T14:03:43.675Z,1004.88
2023-04-18T14:04:08.190Z,1004.92
2023-04-18T14:05:08.179Z,1004.91
2023-04-18T14:06:08.170Z,1004.90
2023-04-18T14:07:08.157Z,1004.92
2023-04-18T14:08:07.960Z,1004.84
2023-04-18T14:09:08.166Z,1004.87
2023-04-18T14:10:08.118Z,1004.94
2023-04-18T14:11:08.138Z,1004.95
2023-04-18T14:12:08.231Z,1004.99